sensor_id;sensor_type;location;lat;lon;timestamp;pressure;altitude;pressure_sealevel;temperature;humidity
79799;BME280;69283;48.024;11.090;2023-07-24T00:01:41;94821.69;;;17.50;67.79
79799;BME280;69283;48.024;11.090;2023-07-24T00:04:07;94809.97;;;17.42;68.29
79799;BME280;69283;48.024;11.090;2023-07-24T00:06:32;94818.56;;;17.33;68.71
79799;BME280;69283;48.024;11.090;2023-07-24T00:08:57;94811.13;;;17.38;68.67
79799;BME280;69283;48.024;11.090;2023-07-24T00:11:28;94805.63;;;17.38;69.12
79799;BME280;69283;48.024;11.090;2023-07-24T00:13:56;94795.09;;;17.36;69.11
79799;BME280;69283;48.024;11.090;2023-07-24T00:16:21;94797.44;;;17.34;69.59
79799;BME280;69283;48.024;11.090;2023-07-24T00:18:47;94780.63;;;17.25;69.83
79799;BME280;69283;48.024;11.090;2023-07-24T00:21:12;94783.34;;;17.32;69.77
79799;BME280;69283;48.024;11.090;2023-07-24T00:23:38;94781.03;;;17.27;69.45
79799;BME280;69283;48.024;11.090;2023-07-24T00:26:04;94784.53;;;17.27;69.59
79799;BME280;69283;48.024;11.090;2023-07-24T00:28:29;94790.38;;;17.19;69.82
79799;BME280;69283;48.024;11.090;2023-07-24T00:30:55;94779.81;;;17.21;69.59
79799;BME280;69283;48.024;11.090;2023-07-24T00:33:24;94781.41;;;17.18;69.37
79799;BME280;69283;48.024;11.090;2023-07-24T00:35:58;94776.69;;;17.19;69.41
79799;BME280;69283;48.024;11.090;2023-07-24T00:38:26;94779.47;;;17.08;70.16
79799;BME280;69283;48.024;11.090;2023-07-24T00:40:51;94781.03;;;17.06;70.34
79799;BME280;69283;48.024;11.090;2023-07-24T00:43:17;94765.75;;;17.01;70.22
79799;BME280;69283;48.024;11.090;2023-07-24T00:45:45;94764.19;;;17.00;70.10
79799;BME280;69283;48.024;11.090;2023-07-24T00:48:12;94764.19;;;16.96;69.88
79799;BME280;69283;48.024;11.090;2023-07-24T00:50:37;94758.34;;;16.98;69.97
79799;BME280;69283;48.024;11.090;2023-07-24T00:53:04;94755.59;;;16.91;69.82
79799;BME280;69283;48.024;11.090;2023-07-24T00:55:30;94750.53;;;16.82;70.09
79799;BME280;69283;48.024;11.090;2023-07-24T00:57:59;94752.44;;;16.82;70.53
79799;BME280;69283;48.024;11.090;2023-07-24T01:00:25;94749.34;;;16.76;70.93
79799;BME280;69283;48.024;11.090;2023-07-24T01:02:51;94754.41;;;16.81;70.73
79799;BME280;69283;48.024;11.090;2023-07-24T01:05:17;94741.50;;;16.78;70.48
79799;BME280;69283;48.024;11.090;2023-07-24T01:07:42;94747.38;;;16.73;70.84
79799;BME280;69283;48.024;11.090;2023-07-24T01:10:12;94747.38;;;16.77;70.80
79799;BME280;69283;48.024;11.090;2023-07-24T01:12:51;94747.75;;;16.79;70.65
79799;BME280;69283;48.024;11.090;2023-07-24T01:15:26;94742.31;;;16.71;70.61
79799;BME280;69283;48.024;11.090;2023-07-24T01:18:08;94735.28;;;16.67;70.79
79799;BME280;69283;48.024;11.090;2023-07-24T01:20:37;94741.09;;;16.62;71.01
79799;BME280;69283;48.024;11.090;2023-07-24T01:25:56;94734.88;;;16.68;70.80
79799;BME280;69283;48.024;11.090;2023-07-24T01:28:26;94733.25;;;16.60;71.31
79799;BME280;69283;48.024;11.090;2023-07-24T01:30:52;94720.38;;;16.61;71.34
79799;BME280;69283;48.024;11.090;2023-07-24T01:33:18;94730.91;;;16.59;71.40
79799;BME280;69283;48.024;11.090;2023-07-24T01:35:44;94724.31;;;16.63;71.40
79799;BME280;69283;48.024;11.090;2023-07-24T01:38:17;94723.94;;;16.68;71.48
79799;BME280;69283;48.024;11.090;2023-07-24T01:40:43;94719.63;;;16.67;71.33
79799;BME280;69283;48.024;11.090;2023-07-24T01:43:09;94720.78;;;16.63;71.22
79799;BME280;69283;48.024;11.090;2023-07-24T01:45:34;94718.41;;;16.58;71.09
79799;BME280;69283;48.024;11.090;2023-07-24T01:48:03;94723.88;;;16.61;71.34
79799;BME280;69283;48.024;11.090;2023-07-24T01:50:31;94717.25;;;16.52;71.81
79799;BME280;69283;48.024;11.090;2023-07-24T01:53:06;94719.19;;;16.51;71.77
79799;BME280;69283;48.024;11.090;2023-07-24T01:55:32;94718.41;;;16.47;71.72
79799;BME280;69283;48.024;11.090;2023-07-24T01:57:57;94731.69;;;16.45;72.14
79799;BME280;69283;48.024;11.090;2023-07-24T02:00:25;94734.03;;;16.47;72.05
79799;BME280;69283;48.024;11.090;2023-07-24T02:02:55;94746.50;;;16.40;72.21
79799;BME280;69283;48.024;11.090;2023-07-24T02:05:23;94748.84;;;16.31;72.80
79799;BME280;69283;48.024;11.090;2023-07-24T02:07:48;94750.41;;;16.32;72.61
79799;BME280;69283;48.024;11.090;2023-07-24T02:10:16;94741.41;;;16.25;73.29
79799;BME280;69283;48.024;11.090;2023-07-24T02:12:41;94734.34;;;16.17;73.41
79799;BME280;69283;48.024;11.090;2023-07-24T02:15:07;94761.34;;;16.25;73.16
79799;BME280;69283;48.024;11.090;2023-07-24T02:17:33;94826.16;;;16.28;73.37
79799;BME280;69283;48.024;11.090;2023-07-24T02:20:00;94809.78;;;16.35;73.47
79799;BME280;69283;48.024;11.090;2023-07-24T02:22:26;94771.53;;;16.46;72.48
79799;BME280;69283;48.024;11.090;2023-07-24T02:24:51;94752.44;;;16.64;71.89
79799;BME280;69283;48.024;11.090;2023-07-24T02:27:27;94778.66;;;16.72;71.87
79799;BME280;69283;48.024;11.090;2023-07-24T02:29:53;94764.59;;;16.84;70.99
79799;BME280;69283;48.024;11.090;2023-07-24T02:32:20;94762.25;;;16.93;70.60
79799;BME280;69283;48.024;11.090;2023-07-24T02:34:48;94789.22;;;16.98;71.05
79799;BME280;69283;48.024;11.090;2023-07-24T02:37:13;94810.31;;;16.98;70.62
79799;BME280;69283;48.024;11.090;2023-07-24T02:39:38;94899.91;;;17.05;70.83
79799;BME280;69283;48.024;11.090;2023-07-24T02:42:04;94939.00;;;17.16;70.51
79799;BME280;69283;48.024;11.090;2023-07-24T02:44:29;95000.84;;;17.24;71.17
79799;BME280;69283;48.024;11.090;2023-07-24T02:46:55;94996.16;;;17.39;71.92
79799;BME280;69283;48.024;11.090;2023-07-24T02:49:20;94973.47;;;17.42;72.25
79799;BME280;69283;48.024;11.090;2023-07-24T02:51:47;94950.78;;;17.41;72.13
79799;BME280;69283;48.024;11.090;2023-07-24T02:54:15;94939.06;;;17.51;72.09
79799;BME280;69283;48.024;11.090;2023-07-24T02:56:43;94937.50;;;17.50;72.20
79799;BME280;69283;48.024;11.090;2023-07-24T02:59:15;94925.38;;;17.58;72.26
79799;BME280;69283;48.024;11.090;2023-07-24T03:01:41;94910.88;;;17.61;71.99
79799;BME280;69283;48.024;11.090;2023-07-24T03:04:17;94875.28;;;17.65;72.21
79799;BME280;69283;48.024;11.090;2023-07-24T03:06:45;94851.44;;;17.69;72.81
79799;BME280;69283;48.024;11.090;2023-07-24T03:09:12;94851.03;;;17.63;74.49
79799;BME280;69283;48.024;11.090;2023-07-24T03:11:37;94847.50;;;17.63;74.52
79799;BME280;69283;48.024;11.090;2023-07-24T03:14:05;94797.00;;;17.57;74.39
79799;BME280;69283;48.024;11.090;2023-07-24T03:16:33;94773.91;;;17.58;74.87
79799;BME280;69283;48.024;11.090;2023-07-24T03:18:59;94722.28;;;17.63;74.64
79799;BME280;69283;48.024;11.090;2023-07-24T03:21:29;94655.75;;;17.63;73.82
79799;BME280;69283;48.024;11.090;2023-07-24T03:23:57;94723.84;;;17.64;74.89
79799;BME280;69283;48.024;11.090;2023-07-24T03:26:25;94727.34;;;17.61;76.07
79799;BME280;69283;48.024;11.090;2023-07-24T03:28:53;94747.31;;;17.58;76.65
79799;BME280;69283;48.024;11.090;2023-07-24T03:31:18;94728.19;;;17.44;77.11
79799;BME280;69283;48.024;11.090;2023-07-24T03:33:46;94714.88;;;17.46;76.74
79799;BME280;69283;48.024;11.090;2023-07-24T03:36:12;94715.28;;;17.45;75.75
79799;BME280;69283;48.024;11.090;2023-07-24T03:38:38;94715.22;;;17.55;76.43
79799;BME280;69283;48.024;11.090;2023-07-24T03:41:06;94726.97;;;17.59;77.05
79799;BME280;69283;48.024;11.090;2023-07-24T03:43:31;94733.63;;;17.66;76.93
79799;BME280;69283;48.024;11.090;2023-07-24T03:45:57;94727.34;;;17.61;77.33
79799;BME280;69283;48.024;11.090;2023-07-24T03:48:25;94737.91;;;17.59;78.57
79799;BME280;69283;48.024;11.090;2023-07-24T03:50:57;94730.91;;;17.51;78.49
79799;BME280;69283;48.024;11.090;2023-07-24T03:53:23;94749.66;;;17.56;78.61
79799;BME280;69283;48.024;11.090;2023-07-24T03:55:52;94745.38;;;17.41;78.75
79799;BME280;69283;48.024;11.090;2023-07-24T03:58:23;94763.00;;;17.44;79.00
79799;BME280;69283;48.024;11.090;2023-07-24T04:00:59;94764.19;;;17.32;79.71
79799;BME280;69283;48.024;11.090;2023-07-24T04:03:24;94763.03;;;17.26;79.48
79799;BME280;69283;48.024;11.090;2023-07-24T04:05:50;94756.75;;;17.18;80.60
79799;BME280;69283;48.024;11.090;2023-07-24T04:08:15;94770.06;;;17.20;80.25
79799;BME280;69283;48.024;11.090;2023-07-24T04:10:40;94782.59;;;17.07;80.69
79799;BME280;69283;48.024;11.090;2023-07-24T04:13:06;94795.88;;;17.12;80.79
79799;BME280;69283;48.024;11.090;2023-07-24T04:15:31;94794.31;;;17.03;80.96
79799;BME280;69283;48.024;11.090;2023-07-24T04:17:57;94801.34;;;17.08;81.22
79799;BME280;69283;48.024;11.090;2023-07-24T04:20:24;94786.88;;;17.11;80.26
79799;BME280;69283;48.024;11.090;2023-07-24T04:22:52;94794.69;;;17.16;79.82
79799;BME280;69283;48.024;11.090;2023-07-24T04:25:25;94778.28;;;17.16;79.56
79799;BME280;69283;48.024;11.090;2023-07-24T04:27:50;94772.78;;;17.20;78.73
79799;BME280;69283;48.024;11.090;2023-07-24T04:30:16;94767.72;;;17.15;77.80
79799;BME280;69283;48.024;11.090;2023-07-24T04:32:42;94768.09;;;17.17;77.41
79799;BME280;69283;48.024;11.090;2023-07-24T04:35:07;94759.50;;;17.15;76.01
79799;BME280;69283;48.024;11.090;2023-07-24T04:37:35;94760.28;;;17.19;75.93
79799;BME280;69283;48.024;11.090;2023-07-24T04:40:01;94763.41;;;17.24;76.29
79799;BME280;69283;48.024;11.090;2023-07-24T04:42:26;94774.78;;;17.23;75.75
79799;BME280;69283;48.024;11.090;2023-07-24T04:44:54;94767.72;;;17.29;75.52
79799;BME280;69283;48.024;11.090;2023-07-24T04:47:19;94772.00;;;17.37;76.16
79799;BME280;69283;48.024;11.090;2023-07-24T04:49:44;94775.50;;;17.41;76.76
79799;BME280;69283;48.024;11.090;2023-07-24T04:52:10;94752.44;;;17.39;75.40
79799;BME280;69283;48.024;11.090;2023-07-24T04:54:35;94745.38;;;17.41;76.31
79799;BME280;69283;48.024;11.090;2023-07-24T04:57:00;94742.25;;;17.46;75.57
79799;BME280;69283;48.024;11.090;2023-07-24T04:59:25;94765.75;;;17.47;76.86
79799;BME280;69283;48.024;11.090;2023-07-24T05:01:51;94756.72;;;17.50;76.50
79799;BME280;69283;48.024;11.090;2023-07-24T05:04:16;94752.81;;;17.51;76.47
79799;BME280;69283;48.024;11.090;2023-07-24T05:06:42;94742.25;;;17.53;75.80
79799;BME280;69283;48.024;11.090;2023-07-24T05:09:07;94746.16;;;17.56;75.81
79799;BME280;69283;48.024;11.090;2023-07-24T05:11:54;94751.22;;;17.57;76.94
79799;BME280;69283;48.024;11.090;2023-07-24T05:14:19;94761.00;;;17.66;75.57
79799;BME280;69283;48.024;11.090;2023-07-24T05:16:45;94761.03;;;17.62;74.86
79799;BME280;69283;48.024;11.090;2023-07-24T05:19:12;94752.78;;;17.58;75.04
79799;BME280;69283;48.024;11.090;2023-07-24T05:21:37;94744.16;;;17.67;75.40
79799;BME280;69283;48.024;11.090;2023-07-24T05:24:03;94752.75;;;17.80;74.49
79799;BME280;69283;48.024;11.090;2023-07-24T05:26:28;94748.41;;;17.97;74.77
79799;BME280;69283;48.024;11.090;2023-07-24T05:28:54;94744.38;;;18.22;74.09
79799;BME280;69283;48.024;11.090;2023-07-24T05:31:19;94730.56;;;18.44;72.86
79799;BME280;69283;48.024;11.090;2023-07-24T05:33:44;94741.38;;;18.72;71.65
79799;BME280;69283;48.024;11.090;2023-07-24T05:36:10;94746.69;;;18.94;70.21
79799;BME280;69283;48.024;11.090;2023-07-24T05:38:35;94737.88;;;19.17;69.07
79799;BME280;69283;48.024;11.090;2023-07-24T05:41:02;94745.59;;;19.32;68.95
79799;BME280;69283;48.024;11.090;2023-07-24T05:43:29;94743.13;;;19.45;69.05
79799;BME280;69283;48.024;11.090;2023-07-24T05:45:56;94739.06;;;19.60;69.12
79799;BME280;69283;48.024;11.090;2023-07-24T05:48:22;94715.50;;;19.63;66.77
79799;BME280;69283;48.024;11.090;2023-07-24T05:50:48;94704.41;;;19.70;66.85
79799;BME280;69283;48.024;11.090;2023-07-24T05:53:14;94704.28;;;19.84;66.73
79799;BME280;69283;48.024;11.090;2023-07-24T05:55:40;94707.59;;;19.99;67.48
79799;BME280;69283;48.024;11.090;2023-07-24T05:58:05;94700.06;;;20.07;66.52
79799;BME280;69283;48.024;11.090;2023-07-24T06:00:31;94692.22;;;20.05;65.41
79799;BME280;69283;48.024;11.090;2023-07-24T06:02:56;94694.28;;;19.97;65.69
79799;BME280;69283;48.024;11.090;2023-07-24T06:05:21;94677.59;;;20.12;65.24
79799;BME280;69283;48.024;11.090;2023-07-24T06:07:47;94678.06;;;20.33;65.98
79799;BME280;69283;48.024;11.090;2023-07-24T06:10:12;94660.78;;;20.33;63.32
79799;BME280;69283;48.024;11.090;2023-07-24T06:12:38;94657.94;;;20.40;63.81
79799;BME280;69283;48.024;11.090;2023-07-24T06:15:04;94664.34;;;20.60;63.06
79799;BME280;69283;48.024;11.090;2023-07-24T06:17:30;94670.97;;;20.90;62.73
79799;BME280;69283;48.024;11.090;2023-07-24T06:19:55;94665.81;;;21.15;60.85
79799;BME280;69283;48.024;11.090;2023-07-24T06:22:21;94665.22;;;21.28;60.44
79799;BME280;69283;48.024;11.090;2023-07-24T06:24:46;94668.91;;;21.41;57.98
79799;BME280;69283;48.024;11.090;2023-07-24T06:27:11;94656.06;;;21.54;57.76
79799;BME280;69283;48.024;11.090;2023-07-24T06:29:37;94655.53;;;21.82;57.89
79799;BME280;69283;48.024;11.090;2023-07-24T06:32:02;94665.13;;;22.14;57.91
79799;BME280;69283;48.024;11.090;2023-07-24T06:34:28;94686.41;;;22.33;54.93
79799;BME280;69283;48.024;11.090;2023-07-24T06:36:53;94700.13;;;22.37;56.49
79799;BME280;69283;48.024;11.090;2023-07-24T06:39:21;94706.72;;;22.59;55.93
79799;BME280;69283;48.024;11.090;2023-07-24T06:41:46;94714.47;;;22.84;54.76
79799;BME280;69283;48.024;11.090;2023-07-24T06:44:12;94712.06;;;22.86;56.03
79799;BME280;69283;48.024;11.090;2023-07-24T06:46:37;94721.91;;;22.87;55.94
79799;BME280;69283;48.024;11.090;2023-07-24T06:49:03;94744.13;;;22.80;55.92
79799;BME280;69283;48.024;11.090;2023-07-24T06:51:28;94762.84;;;22.72;55.95
79799;BME280;69283;48.024;11.090;2023-07-24T06:53:53;94758.25;;;22.66;55.58
79799;BME280;69283;48.024;11.090;2023-07-24T06:56:18;94750.63;;;22.54;55.34
79799;BME280;69283;48.024;11.090;2023-07-24T06:58:44;94754.41;;;22.43;57.74
79799;BME280;69283;48.024;11.090;2023-07-24T07:01:09;94794.38;;;22.35;59.06
79799;BME280;69283;48.024;11.090;2023-07-24T07:03:35;94902.75;;;22.16;60.33
79799;BME280;69283;48.024;11.090;2023-07-24T07:06:01;94919.50;;;21.55;59.32
79799;BME280;69283;48.024;11.090;2023-07-24T07:08:27;94938.47;;;21.19;60.29
79799;BME280;69283;48.024;11.090;2023-07-24T07:10:59;94935.69;;;20.92;61.60
79799;BME280;69283;48.024;11.090;2023-07-24T07:13:26;94922.53;;;20.73;62.92
79799;BME280;69283;48.024;11.090;2023-07-24T07:15:51;94929.47;;;20.50;64.00
79799;BME280;69283;48.024;11.090;2023-07-24T07:18:16;94932.31;;;20.43;64.47
79799;BME280;69283;48.024;11.090;2023-07-24T07:20:46;94921.28;;;20.40;64.85
79799;BME280;69283;48.024;11.090;2023-07-24T07:23:11;94912.38;;;20.28;65.02
79799;BME280;69283;48.024;11.090;2023-07-24T07:25:37;94906.16;;;20.21;64.89
79799;BME280;69283;48.024;11.090;2023-07-24T07:28:02;94888.28;;;20.02;65.32
79799;BME280;69283;48.024;11.090;2023-07-24T07:30:27;94878.47;;;20.01;65.10
79799;BME280;69283;48.024;11.090;2023-07-24T07:32:53;94882.44;;;19.96;65.32
79799;BME280;69283;48.024;11.090;2023-07-24T07:35:18;94893.00;;;20.01;65.08
79799;BME280;69283;48.024;11.090;2023-07-24T07:37:43;94885.91;;;20.04;65.51
79799;BME280;69283;48.024;11.090;2023-07-24T07:40:09;94878.09;;;19.99;65.93
79799;BME280;69283;48.024;11.090;2023-07-24T07:42:34;94891.81;;;20.02;65.82
79799;BME280;69283;48.024;11.090;2023-07-24T07:45:00;94894.97;;;20.01;65.46
79799;BME280;69283;48.024;11.090;2023-07-24T07:47:25;94887.59;;;19.91;65.56
79799;BME280;69283;48.024;11.090;2023-07-24T07:49:50;94874.59;;;19.95;65.11
79799;BME280;69283;48.024;11.090;2023-07-24T07:52:16;94871.88;;;19.91;65.20
79799;BME280;69283;48.024;11.090;2023-07-24T07:54:46;94863.63;;;19.91;65.30
79799;BME280;69283;48.024;11.090;2023-07-24T07:57:11;94867.53;;;19.94;64.88
79799;BME280;69283;48.024;11.090;2023-07-24T07:59:37;94848.28;;;19.94;65.60
79799;BME280;69283;48.024;11.090;2023-07-24T08:02:02;94833.41;;;19.91;64.60
79799;BME280;69283;48.024;11.090;2023-07-24T08:04:27;94820.75;;;19.97;64.75
79799;BME280;69283;48.024;11.090;2023-07-24T08:06:53;94798.47;;;19.88;65.22
79799;BME280;69283;48.024;11.090;2023-07-24T08:09:18;94796.50;;;19.89;65.02
79799;BME280;69283;48.024;11.090;2023-07-24T08:11:43;94818.91;;;19.87;65.21
79799;BME280;69283;48.024;11.090;2023-07-24T08:14:09;94833.41;;;19.91;66.95
79799;BME280;69283;48.024;11.090;2023-07-24T08:16:34;94814.06;;;19.98;67.51
79799;BME280;69283;48.024;11.090;2023-07-24T08:18:59;94777.50;;;20.01;65.87
79799;BME280;69283;48.024;11.090;2023-07-24T08:21:25;94766.47;;;20.05;65.08
79799;BME280;69283;48.024;11.090;2023-07-24T08:23:50;94743.66;;;20.08;65.15
79799;BME280;69283;48.024;11.090;2023-07-24T08:26:15;94725.91;;;20.13;65.79
79799;BME280;69283;48.024;11.090;2023-07-24T08:28:40;94740.91;;;20.08;65.26
79799;BME280;69283;48.024;11.090;2023-07-24T08:31:07;94733.44;;;20.09;64.71
79799;BME280;69283;48.024;11.090;2023-07-24T08:33:33;94742.88;;;20.08;65.92
79799;BME280;69283;48.024;11.090;2023-07-24T08:36:05;94746.44;;;20.04;66.86
79799;BME280;69283;48.024;11.090;2023-07-24T08:38:31;94767.25;;;20.05;66.41
79799;BME280;69283;48.024;11.090;2023-07-24T08:41:05;94775.03;;;20.11;64.51
79799;BME280;69283;48.024;11.090;2023-07-24T08:43:32;94761.28;;;20.11;64.17
79799;BME280;69283;48.024;11.090;2023-07-24T08:45:59;94750.38;;;20.03;64.85
79799;BME280;69283;48.024;11.090;2023-07-24T08:48:32;94755.88;;;20.03;64.66
79799;BME280;69283;48.024;11.090;2023-07-24T08:51:01;94761.00;;;20.01;64.47
79799;BME280;69283;48.024;11.090;2023-07-24T08:53:28;94748.00;;;20.05;64.36
79799;BME280;69283;48.024;11.090;2023-07-24T08:55:56;94740.19;;;20.00;64.51
79799;BME280;69283;48.024;11.090;2023-07-24T08:58:21;94752.72;;;20.05;64.76
79799;BME280;69283;48.024;11.090;2023-07-24T09:00:47;94766.03;;;20.10;63.89
79799;BME280;69283;48.024;11.090;2023-07-24T09:03:12;94762.69;;;20.26;64.43
79799;BME280;69283;48.024;11.090;2023-07-24T09:05:38;94762.50;;;20.40;64.20
79799;BME280;69283;48.024;11.090;2023-07-24T09:08:04;94759.09;;;20.63;62.92
79799;BME280;69283;48.024;11.090;2023-07-24T09:10:29;94756.06;;;20.81;63.00
79799;BME280;69283;48.024;11.090;2023-07-24T09:12:55;94745.25;;;20.93;61.67
79799;BME280;69283;48.024;11.090;2023-07-24T09:15:20;94736.41;;;21.06;61.84
79799;BME280;69283;48.024;11.090;2023-07-24T09:17:52;94729.28;;;21.08;59.64
79799;BME280;69283;48.024;11.090;2023-07-24T09:20:19;94718.91;;;21.16;60.16
79799;BME280;69283;48.024;11.090;2023-07-24T09:22:52;94722.03;;;21.18;60.30
79799;BME280;69283;48.024;11.090;2023-07-24T09:25:17;94720.13;;;21.15;60.70
79799;BME280;69283;48.024;11.090;2023-07-24T09:27:43;94702.69;;;21.21;61.39
79799;BME280;69283;48.024;11.090;2023-07-24T09:30:13;94697.59;;;21.20;60.58
79799;BME280;69283;48.024;11.090;2023-07-24T09:32:40;94694.41;;;21.21;61.04
79799;BME280;69283;48.024;11.090;2023-07-24T09:35:16;94685.59;;;21.34;60.79
79799;BME280;69283;48.024;11.090;2023-07-24T09:37:43;94677.91;;;21.45;60.17
79799;BME280;69283;48.024;11.090;2023-07-24T09:40:10;94678.13;;;21.54;60.10
79799;BME280;69283;48.024;11.090;2023-07-24T09:42:36;94683.03;;;21.66;59.54
79799;BME280;69283;48.024;11.090;2023-07-24T09:45:03;94680.13;;;21.73;59.37
79799;BME280;69283;48.024;11.090;2023-07-24T09:47:29;94660.47;;;21.71;58.59
79799;BME280;69283;48.024;11.090;2023-07-24T09:49:55;94664.97;;;21.81;59.53
79799;BME280;69283;48.024;11.090;2023-07-24T09:52:21;94650.41;;;22.01;58.74
79799;BME280;69283;48.024;11.090;2023-07-24T09:57:18;94647.41;;;22.31;56.94
79799;BME280;69283;48.024;11.090;2023-07-24T09:59:45;94639.41;;;22.37;56.33
79799;BME280;69283;48.024;11.090;2023-07-24T10:02:11;94627.06;;;22.41;55.04
79799;BME280;69283;48.024;11.090;2023-07-24T10:04:38;94634.13;;;22.42;54.99
79799;BME280;69283;48.024;11.090;2023-07-24T10:07:06;94633.91;;;22.53;56.23
79799;BME280;69283;48.024;11.090;2023-07-24T10:09:33;94636.00;;;22.65;55.67
79799;BME280;69283;48.024;11.090;2023-07-24T10:11:58;94641.13;;;22.83;54.90
79799;BME280;69283;48.024;11.090;2023-07-24T10:14:25;94647.03;;;22.98;55.56
79799;BME280;69283;48.024;11.090;2023-07-24T10:16:51;94645.47;;;23.13;53.34
79799;BME280;69283;48.024;11.090;2023-07-24T10:19:20;94663.00;;;23.23;51.51
79799;BME280;69283;48.024;11.090;2023-07-24T10:21:47;94669.13;;;23.30;51.66
79799;BME280;69283;48.024;11.090;2023-07-24T10:24:13;94662.28;;;23.35;52.73
79799;BME280;69283;48.024;11.090;2023-07-24T10:26:39;94657.09;;;23.37;51.12
79799;BME280;69283;48.024;11.090;2023-07-24T10:29:04;94653.13;;;23.38;51.39
79799;BME280;69283;48.024;11.090;2023-07-24T10:31:31;94652.19;;;23.45;49.59
79799;BME280;69283;48.024;11.090;2023-07-24T10:34:06;94640.25;;;23.48;50.98
79799;BME280;69283;48.024;11.090;2023-07-24T10:36:36;94631.94;;;23.48;52.03
79799;BME280;69283;48.024;11.090;2023-07-24T10:39:02;94646.22;;;23.46;51.01
79799;BME280;69283;48.024;11.090;2023-07-24T10:41:37;94645.16;;;23.56;49.48
79799;BME280;69283;48.024;11.090;2023-07-24T10:44:03;94635.94;;;23.76;51.40
79799;BME280;69283;48.024;11.090;2023-07-24T10:46:40;94622.38;;;23.94;49.20
79799;BME280;69283;48.024;11.090;2023-07-24T10:49:06;94619.63;;;24.07;49.99
79799;BME280;69283;48.024;11.090;2023-07-24T10:51:32;94613.56;;;24.12;49.00
79799;BME280;69283;48.024;11.090;2023-07-24T10:54:00;94602.38;;;24.28;48.65
79799;BME280;69283;48.024;11.090;2023-07-24T10:56:25;94589.91;;;24.36;47.70
79799;BME280;69283;48.024;11.090;2023-07-24T10:58:50;94590.13;;;24.29;47.64
79799;BME280;69283;48.024;11.090;2023-07-24T11:01:17;94588.66;;;24.24;49.23
79799;BME280;69283;48.024;11.090;2023-07-24T11:03:43;94574.72;;;24.28;50.61
79799;BME280;69283;48.024;11.090;2023-07-24T11:06:17;94564.00;;;24.43;49.75
79799;BME280;69283;48.024;11.090;2023-07-24T11:08:50;94548.56;;;24.42;49.33
79799;BME280;69283;48.024;11.090;2023-07-24T11:11:15;94556.56;;;24.40;49.53
79799;BME280;69283;48.024;11.090;2023-07-24T11:13:41;94551.91;;;24.49;49.79
79799;BME280;69283;48.024;11.090;2023-07-24T11:16:07;94555.22;;;24.57;49.01
79799;BME280;69283;48.024;11.090;2023-07-24T11:18:33;94555.19;;;24.70;48.10
79799;BME280;69283;48.024;11.090;2023-07-24T11:21:08;94554.94;;;24.90;46.78
79799;BME280;69283;48.024;11.090;2023-07-24T11:23:35;94557.19;;;25.16;46.62
79799;BME280;69283;48.024;11.090;2023-07-24T11:26:00;94562.38;;;25.27;42.58
79799;BME280;69283;48.024;11.090;2023-07-24T11:28:26;94547.88;;;25.23;42.78
79799;BME280;69283;48.024;11.090;2023-07-24T11:30:51;94558.69;;;25.30;41.97
79799;BME280;69283;48.024;11.090;2023-07-24T11:33:17;94546.25;;;25.35;41.98
79799;BME280;69283;48.024;11.090;2023-07-24T11:35:42;94545.66;;;25.40;42.36
79799;BME280;69283;48.024;11.090;2023-07-24T11:38:09;94541.09;;;25.46;44.08
79799;BME280;69283;48.024;11.090;2023-07-24T11:40:40;94548.66;;;25.45;43.80
79799;BME280;69283;48.024;11.090;2023-07-24T11:43:19;94561.94;;;25.51;43.68
79799;BME280;69283;48.024;11.090;2023-07-24T11:45:45;94565.03;;;25.53;44.08
79799;BME280;69283;48.024;11.090;2023-07-24T11:48:14;94567.03;;;25.52;44.05
79799;BME280;69283;48.024;11.090;2023-07-24T11:50:45;94553.28;;;25.48;44.51
79799;BME280;69283;48.024;11.090;2023-07-24T11:53:28;94560.38;;;25.50;45.23
79799;BME280;69283;48.024;11.090;2023-07-24T11:55:56;94592.44;;;25.51;46.11
79799;BME280;69283;48.024;11.090;2023-07-24T11:58:25;94627.41;;;25.48;47.77
79799;BME280;69283;48.024;11.090;2023-07-24T12:00:51;94658.03;;;25.44;47.47
79799;BME280;69283;48.024;11.090;2023-07-24T12:03:28;94682.50;;;25.24;48.34
79799;BME280;69283;48.024;11.090;2023-07-24T12:05:54;94678.84;;;25.02;49.21
79799;BME280;69283;48.024;11.090;2023-07-24T12:08:23;94686.72;;;24.91;50.30
79799;BME280;69283;48.024;11.090;2023-07-24T12:10:54;94676.16;;;24.60;52.10
79799;BME280;69283;48.024;11.090;2023-07-24T12:13:20;94694.47;;;24.45;52.82
79799;BME280;69283;48.024;11.090;2023-07-24T12:15:45;94678.59;;;24.33;53.48
79799;BME280;69283;48.024;11.090;2023-07-24T12:18:10;94669.22;;;24.14;54.19
79799;BME280;69283;48.024;11.090;2023-07-24T12:20:36;94664.09;;;23.87;54.76
79799;BME280;69283;48.024;11.090;2023-07-24T12:23:01;94671.94;;;23.59;54.97
79799;BME280;69283;48.024;11.090;2023-07-24T12:25:26;94686.28;;;23.54;55.44
79799;BME280;69283;48.024;11.090;2023-07-24T12:27:52;94682.84;;;23.34;55.03
79799;BME280;69283;48.024;11.090;2023-07-24T12:30:17;94702.13;;;23.21;55.38
79799;BME280;69283;48.024;11.090;2023-07-24T12:32:43;94711.03;;;23.13;56.17
79799;BME280;69283;48.024;11.090;2023-07-24T12:35:10;94714.22;;;23.11;57.40
79799;BME280;69283;48.024;11.090;2023-07-24T12:37:35;94734.44;;;23.08;58.06
79799;BME280;69283;48.024;11.090;2023-07-24T12:40:01;94735.72;;;23.03;58.32
79799;BME280;69283;48.024;11.090;2023-07-24T12:42:27;94720.84;;;22.97;59.52
79799;BME280;69283;48.024;11.090;2023-07-24T12:44:52;94730.34;;;22.96;59.26
79799;BME280;69283;48.024;11.090;2023-07-24T12:47:18;94735.81;;;22.84;60.26
79799;BME280;69283;48.024;11.090;2023-07-24T12:49:43;94728.38;;;22.61;61.06
79799;BME280;69283;48.024;11.090;2023-07-24T12:52:18;94718.22;;;22.38;61.13
79799;BME280;69283;48.024;11.090;2023-07-24T12:54:44;94709.88;;;22.02;63.16